sensor_id;sensor_type;location;lat;lon;timestamp;P1;durP1;ratioP1;P2;durP2;ratioP2
4565;SDS011;2295;51.050;14.608;2023-04-29T00:02:14;22.75;;;13.93;;
4565;SDS011;2295;51.050;14.608;2023-04-29T00:04:42;34.78;;;14.48;;
4565;SDS011;2295;51.050;14.608;2023-04-29T00:07:11;29.55;;;15.05;;
4565;SDS011;2295;51.050;14.608;2023-04-29T00:09:42;24.60;;;15.50;;
4565;SDS011;2295;51.050;14.608;2023-04-29T00:12:11;31.45;;;15.73;;
4565;SDS011;2295;51.050;14.608;2023-04-29T00:14:39;29.35;;;16.42;;
4565;SDS011;2295;51.050;14.608;2023-04-29T00:17:08;31.05;;;17.38;;
4565;SDS011;2295;51.050;14.608;2023-04-29T00:19:37;31.13;;;16.73;;
4565;SDS011;2295;51.050;14.608;2023-04-29T00:22:06;33.85;;;16.83;;
4565;SDS011;2295;51.050;14.608;2023-04-29T00:24:35;32.58;;;18.08;;
4565;SDS011;2295;51.050;14.608;2023-04-29T00:27:05;32.63;;;17.52;;
4565;SDS011;2295;51.050;14.608;2023-04-29T00:29:33;30.00;;;16.95;;
4565;SDS011;2295;51.050;14.608;2023-04-29T00:32:02;29.58;;;18.77;;
4565;SDS011;2295;51.050;14.608;2023-04-29T00:34:30;30.52;;;17.92;;
4565;SDS011;2295;51.050;14.608;2023-04-29T00:36:59;34.78;;;18.60;;
4565;SDS011;2295;51.050;14.608;2023-04-29T00:39:27;33.80;;;18.65;;
4565;SDS011;2295;51.050;14.608;2023-04-29T00:41:57;41.53;;;19.00;;
4565;SDS011;2295;51.050;14.608;2023-04-29T00:44:27;45.72;;;19.67;;
4565;SDS011;2295;51.050;14.608;2023-04-29T00:46:55;35.83;;;18.48;;
4565;SDS011;2295;51.050;14.608;2023-04-29T00:49:24;37.13;;;19.98;;
4565;SDS011;2295;51.050;14.608;2023-04-29T00:51:53;36.92;;;21.33;;
4565;SDS011;2295;51.050;14.608;2023-04-29T00:54:24;38.47;;;20.83;;
4565;SDS011;2295;51.050;14.608;2023-04-29T00:56:52;39.97;;;20.67;;
4565;SDS011;2295;51.050;14.608;2023-04-29T00:59:22;38.88;;;21.30;;
4565;SDS011;2295;51.050;14.608;2023-04-29T01:01:59;35.75;;;20.75;;
4565;SDS011;2295;51.050;14.608;2023-04-29T01:04:29;35.90;;;21.45;;
4565;SDS011;2295;51.050;14.608;2023-04-29T01:07:00;42.67;;;21.65;;
4565;SDS011;2295;51.050;14.608;2023-04-29T01:09:37;37.55;;;21.95;;
4565;SDS011;2295;51.050;14.608;2023-04-29T01:12:14;45.65;;;23.73;;
4565;SDS011;2295;51.050;14.608;2023-04-29T01:14:51;37.97;;;22.25;;
4565;SDS011;2295;51.050;14.608;2023-04-29T01:17:26;40.83;;;21.92;;
4565;SDS011;2295;51.050;14.608;2023-04-29T01:19:58;40.80;;;22.25;;
4565;SDS011;2295;51.050;14.608;2023-04-29T01:22:28;46.63;;;22.60;;
4565;SDS011;2295;51.050;14.608;2023-04-29T01:24:58;37.50;;;22.17;;
4565;SDS011;2295;51.050;14.608;2023-04-29T01:27:28;47.92;;;25.10;;
4565;SDS011;2295;51.050;14.608;2023-04-29T01:30:01;44.53;;;20.40;;
4565;SDS011;2295;51.050;14.608;2023-04-29T01:32:40;45.92;;;23.58;;
4565;SDS011;2295;51.050;14.608;2023-04-29T01:35:17;38.97;;;22.45;;
4565;SDS011;2295;51.050;14.608;2023-04-29T01:37:56;45.13;;;23.08;;
4565;SDS011;2295;51.050;14.608;2023-04-29T01:40:35;40.28;;;22.85;;
4565;SDS011;2295;51.050;14.608;2023-04-29T01:43:09;36.67;;;22.00;;
4565;SDS011;2295;51.050;14.608;2023-04-29T01:45:41;44.83;;;23.30;;
4565;SDS011;2295;51.050;14.608;2023-04-29T01:48:10;39.22;;;20.95;;
4565;SDS011;2295;51.050;14.608;2023-04-29T01:50:39;39.38;;;21.55;;
4565;SDS011;2295;51.050;14.608;2023-04-29T01:53:08;45.30;;;24.35;;
4565;SDS011;2295;51.050;14.608;2023-04-29T01:55:37;41.83;;;21.35;;
4565;SDS011;2295;51.050;14.608;2023-04-29T01:58:06;41.20;;;21.55;;
4565;SDS011;2295;51.050;14.608;2023-04-29T02:00:34;38.95;;;21.42;;
4565;SDS011;2295;51.050;14.608;2023-04-29T02:03:03;37.10;;;20.90;;
4565;SDS011;2295;51.050;14.608;2023-04-29T02:05:32;36.90;;;21.60;;
4565;SDS011;2295;51.050;14.608;2023-04-29T02:08:01;39.80;;;23.50;;
4565;SDS011;2295;51.050;14.608;2023-04-29T02:10:29;38.08;;;22.27;;
4565;SDS011;2295;51.050;14.608;2023-04-29T02:13:00;42.38;;;22.67;;
4565;SDS011;2295;51.050;14.608;2023-04-29T02:15:28;43.55;;;23.60;;
4565;SDS011;2295;51.050;14.608;2023-04-29T02:17:58;41.20;;;23.30;;
4565;SDS011;2295;51.050;14.608;2023-04-29T02:20:27;47.92;;;23.20;;
4565;SDS011;2295;51.050;14.608;2023-04-29T02:23:02;40.58;;;22.13;;
4565;SDS011;2295;51.050;14.608;2023-04-29T02:25:30;39.42;;;22.73;;
4565;SDS011;2295;51.050;14.608;2023-04-29T02:28:00;41.72;;;21.48;;
4565;SDS011;2295;51.050;14.608;2023-04-29T02:30:29;36.38;;;22.45;;
4565;SDS011;2295;51.050;14.608;2023-04-29T02:32:57;42.65;;;23.73;;
4565;SDS011;2295;51.050;14.608;2023-04-29T02:35:26;43.25;;;23.40;;
4565;SDS011;2295;51.050;14.608;2023-04-29T02:37:54;46.10;;;23.38;;
4565;SDS011;2295;51.050;14.608;2023-04-29T02:40:23;38.45;;;22.23;;
4565;SDS011;2295;51.050;14.608;2023-04-29T02:42:52;39.83;;;24.00;;
4565;SDS011;2295;51.050;14.608;2023-04-29T02:45:22;48.40;;;24.90;;
4565;SDS011;2295;51.050;14.608;2023-04-29T02:47:51;47.17;;;24.60;;
4565;SDS011;2295;51.050;14.608;2023-04-29T02:50:19;47.70;;;26.33;;
4565;SDS011;2295;51.050;14.608;2023-04-29T02:52:48;53.55;;;26.27;;
4565;SDS011;2295;51.050;14.608;2023-04-29T02:55:17;52.10;;;27.10;;
4565;SDS011;2295;51.050;14.608;2023-04-29T02:57:45;46.88;;;25.85;;
4565;SDS011;2295;51.050;14.608;2023-04-29T03:00:14;45.65;;;26.30;;
4565;SDS011;2295;51.050;14.608;2023-04-29T03:02:44;50.35;;;27.25;;
4565;SDS011;2295;51.050;14.608;2023-04-29T03:05:12;55.65;;;25.90;;
4565;SDS011;2295;51.050;14.608;2023-04-29T03:07:41;53.40;;;26.20;;
4565;SDS011;2295;51.050;14.608;2023-04-29T03:10:09;52.03;;;26.67;;
4565;SDS011;2295;51.050;14.608;2023-04-29T03:12:38;56.88;;;27.55;;
4565;SDS011;2295;51.050;14.608;2023-04-29T03:15:07;55.05;;;29.05;;
4565;SDS011;2295;51.050;14.608;2023-04-29T03:17:36;56.97;;;29.13;;
4565;SDS011;2295;51.050;14.608;2023-04-29T03:20:06;61.22;;;28.35;;
4565;SDS011;2295;51.050;14.608;2023-04-29T03:22:37;58.63;;;28.23;;
4565;SDS011;2295;51.050;14.608;2023-04-29T03:25:05;58.55;;;28.08;;
4565;SDS011;2295;51.050;14.608;2023-04-29T03:27:36;54.30;;;26.85;;
4565;SDS011;2295;51.050;14.608;2023-04-29T03:30:05;59.05;;;27.35;;
4565;SDS011;2295;51.050;14.608;2023-04-29T03:32:34;47.78;;;27.10;;
4565;SDS011;2295;51.050;14.608;2023-04-29T03:35:02;70.20;;;30.80;;
4565;SDS011;2295;51.050;14.608;2023-04-29T03:37:32;55.55;;;28.17;;
4565;SDS011;2295;51.050;14.608;2023-04-29T03:40:01;63.60;;;29.48;;
4565;SDS011;2295;51.050;14.608;2023-04-29T03:42:29;49.70;;;25.40;;
4565;SDS011;2295;51.050;14.608;2023-04-29T03:44:58;51.97;;;28.38;;
4565;SDS011;2295;51.050;14.608;2023-04-29T03:47:26;51.42;;;26.63;;
4565;SDS011;2295;51.050;14.608;2023-04-29T03:49:54;50.90;;;26.40;;
4565;SDS011;2295;51.050;14.608;2023-04-29T03:52:23;57.58;;;26.85;;
4565;SDS011;2295;51.050;14.608;2023-04-29T03:54:53;58.20;;;25.85;;
4565;SDS011;2295;51.050;14.608;2023-04-29T03:57:21;55.47;;;28.15;;
4565;SDS011;2295;51.050;14.608;2023-04-29T03:59:49;57.75;;;26.95;;
4565;SDS011;2295;51.050;14.608;2023-04-29T04:02:18;56.17;;;27.23;;
4565;SDS011;2295;51.050;14.608;2023-04-29T04:04:47;63.45;;;28.77;;
4565;SDS011;2295;51.050;14.608;2023-04-29T04:07:15;62.67;;;26.50;;
4565;SDS011;2295;51.050;14.608;2023-04-29T04:09:44;60.58;;;25.20;;
4565;SDS011;2295;51.050;14.608;2023-04-29T04:12:14;57.05;;;26.02;;
4565;SDS011;2295;51.050;14.608;2023-04-29T04:14:42;57.67;;;26.00;;
4565;SDS011;2295;51.050;14.608;2023-04-29T04:17:10;59.70;;;26.85;;
4565;SDS011;2295;51.050;14.608;2023-04-29T04:19:39;71.20;;;29.67;;
4565;SDS011;2295;51.050;14.608;2023-04-29T04:22:07;66.30;;;28.73;;
4565;SDS011;2295;51.050;14.608;2023-04-29T04:24:38;55.03;;;26.27;;
4565;SDS011;2295;51.050;14.608;2023-04-29T04:27:06;68.63;;;27.35;;
4565;SDS011;2295;51.050;14.608;2023-04-29T04:29:36;57.22;;;26.20;;
4565;SDS011;2295;51.050;14.608;2023-04-29T04:32:05;61.60;;;27.55;;
4565;SDS011;2295;51.050;14.608;2023-04-29T04:34:33;63.30;;;27.25;;
4565;SDS011;2295;51.050;14.608;2023-04-29T04:37:01;48.33;;;23.85;;
4565;SDS011;2295;51.050;14.608;2023-04-29T04:39:30;53.15;;;24.00;;
4565;SDS011;2295;51.050;14.608;2023-04-29T04:41:58;57.63;;;25.35;;
4565;SDS011;2295;51.050;14.608;2023-04-29T04:44:29;48.38;;;24.08;;
4565;SDS011;2295;51.050;14.608;2023-04-29T04:46:59;61.80;;;26.20;;
4565;SDS011;2295;51.050;14.608;2023-04-29T04:49:27;54.13;;;26.60;;
4565;SDS011;2295;51.050;14.608;2023-04-29T04:51:56;52.10;;;24.48;;
4565;SDS011;2295;51.050;14.608;2023-04-29T04:54:25;49.15;;;23.05;;
4565;SDS011;2295;51.050;14.608;2023-04-29T04:56:53;66.03;;;29.63;;
4565;SDS011;2295;51.050;14.608;2023-04-29T04:59:22;56.85;;;26.80;;
4565;SDS011;2295;51.050;14.608;2023-04-29T05:01:50;66.03;;;32.13;;
4565;SDS011;2295;51.050;14.608;2023-04-29T05:04:20;64.65;;;30.83;;
4565;SDS011;2295;51.050;14.608;2023-04-29T05:06:49;57.67;;;27.42;;
4565;SDS011;2295;51.050;14.608;2023-04-29T05:09:17;65.95;;;28.92;;
4565;SDS011;2295;51.050;14.608;2023-04-29T05:11:46;90.55;;;39.17;;
4565;SDS011;2295;51.050;14.608;2023-04-29T05:14:14;60.58;;;29.23;;
4565;SDS011;2295;51.050;14.608;2023-04-29T05:16:43;84.30;;;36.67;;
4565;SDS011;2295;51.050;14.608;2023-04-29T05:19:12;74.47;;;34.50;;
4565;SDS011;2295;51.050;14.608;2023-04-29T05:21:42;65.97;;;32.70;;
4565;SDS011;2295;51.050;14.608;2023-04-29T05:24:10;64.20;;;34.03;;
4565;SDS011;2295;51.050;14.608;2023-04-29T05:26:39;50.90;;;27.33;;
4565;SDS011;2295;51.050;14.608;2023-04-29T05:29:09;53.53;;;26.58;;
4565;SDS011;2295;51.050;14.608;2023-04-29T05:31:38;52.47;;;26.10;;
4565;SDS011;2295;51.050;14.608;2023-04-29T05:34:06;56.90;;;26.02;;
4565;SDS011;2295;51.050;14.608;2023-04-29T05:36:34;50.17;;;22.73;;
4565;SDS011;2295;51.050;14.608;2023-04-29T05:39:04;49.00;;;24.00;;
4565;SDS011;2295;51.050;14.608;2023-04-29T05:41:33;44.38;;;22.80;;
4565;SDS011;2295;51.050;14.608;2023-04-29T05:44:02;38.53;;;20.30;;
4565;SDS011;2295;51.050;14.608;2023-04-29T05:46:30;41.72;;;20.75;;
4565;SDS011;2295;51.050;14.608;2023-04-29T05:48:59;39.00;;;20.77;;
4565;SDS011;2295;51.050;14.608;2023-04-29T05:51:27;36.95;;;19.08;;
4565;SDS011;2295;51.050;14.608;2023-04-29T05:53:57;39.60;;;20.05;;
4565;SDS011;2295;51.050;14.608;2023-04-29T05:56:27;37.63;;;19.58;;
4565;SDS011;2295;51.050;14.608;2023-04-29T05:58:55;36.25;;;19.80;;
4565;SDS011;2295;51.050;14.608;2023-04-29T06:01:24;37.55;;;19.17;;
4565;SDS011;2295;51.050;14.608;2023-04-29T06:03:52;40.53;;;20.00;;
4565;SDS011;2295;51.050;14.608;2023-04-29T06:06:21;38.63;;;19.70;;
4565;SDS011;2295;51.050;14.608;2023-04-29T06:09:14;33.10;;;19.08;;
4565;SDS011;2295;51.050;14.608;2023-04-29T06:11:55;35.33;;;19.00;;
4565;SDS011;2295;51.050;14.608;2023-04-29T06:14:24;31.65;;;17.75;;
4565;SDS011;2295;51.050;14.608;2023-04-29T06:16:53;37.47;;;19.35;;
4565;SDS011;2295;51.050;14.608;2023-04-29T06:19:21;42.60;;;18.27;;
4565;SDS011;2295;51.050;14.608;2023-04-29T06:21:50;30.70;;;16.98;;
4565;SDS011;2295;51.050;14.608;2023-04-29T06:24:19;34.53;;;16.63;;
4565;SDS011;2295;51.050;14.608;2023-04-29T06:26:48;34.40;;;17.42;;
4565;SDS011;2295;51.050;14.608;2023-04-29T06:29:18;32.00;;;17.40;;
4565;SDS011;2295;51.050;14.608;2023-04-29T06:31:46;33.95;;;17.58;;
4565;SDS011;2295;51.050;14.608;2023-04-29T06:34:15;31.65;;;17.75;;
4565;SDS011;2295;51.050;14.608;2023-04-29T06:36:43;36.40;;;18.70;;
4565;SDS011;2295;51.050;14.608;2023-04-29T06:39:12;38.55;;;19.40;;
4565;SDS011;2295;51.050;14.608;2023-04-29T06:41:40;37.80;;;20.85;;
4565;SDS011;2295;51.050;14.608;2023-04-29T06:44:09;35.95;;;18.35;;
4565;SDS011;2295;51.050;14.608;2023-04-29T06:46:38;27.30;;;15.38;;
4565;SDS011;2295;51.050;14.608;2023-04-29T06:49:13;30.52;;;15.15;;
4565;SDS011;2295;51.050;14.608;2023-04-29T06:51:41;29.98;;;15.73;;
4565;SDS011;2295;51.050;14.608;2023-04-29T06:54:09;29.00;;;15.65;;
4565;SDS011;2295;51.050;14.608;2023-04-29T06:56:38;26.48;;;15.70;;
4565;SDS011;2295;51.050;14.608;2023-04-29T06:59:06;27.88;;;14.52;;
4565;SDS011;2295;51.050;14.608;2023-04-29T07:01:36;32.97;;;15.40;;
4565;SDS011;2295;51.050;14.608;2023-04-29T07:04:10;27.30;;;15.65;;
4565;SDS011;2295;51.050;14.608;2023-04-29T07:06:39;25.30;;;14.60;;
4565;SDS011;2295;51.050;14.608;2023-04-29T07:09:07;22.83;;;13.25;;
4565;SDS011;2295;51.050;14.608;2023-04-29T07:11:37;27.17;;;14.50;;
4565;SDS011;2295;51.050;14.608;2023-04-29T07:14:06;23.52;;;13.68;;
4565;SDS011;2295;51.050;14.608;2023-04-29T07:16:34;24.48;;;14.65;;
4565;SDS011;2295;51.050;14.608;2023-04-29T07:19:03;20.35;;;12.82;;
4565;SDS011;2295;51.050;14.608;2023-04-29T07:21:33;23.35;;;13.95;;
4565;SDS011;2295;51.050;14.608;2023-04-29T07:24:01;21.48;;;13.07;;
4565;SDS011;2295;51.050;14.608;2023-04-29T07:26:30;21.67;;;13.80;;
4565;SDS011;2295;51.050;14.608;2023-04-29T07:28:58;20.58;;;12.50;;
4565;SDS011;2295;51.050;14.608;2023-04-29T07:31:27;23.88;;;13.63;;
4565;SDS011;2295;51.050;14.608;2023-04-29T07:34:00;18.60;;;13.15;;
4565;SDS011;2295;51.050;14.608;2023-04-29T07:36:29;26.35;;;15.18;;
4565;SDS011;2295;51.050;14.608;2023-04-29T07:39:00;21.50;;;14.07;;
4565;SDS011;2295;51.050;14.608;2023-04-29T07:41:28;21.85;;;14.25;;
4565;SDS011;2295;51.050;14.608;2023-04-29T07:43:57;24.17;;;15.50;;
4565;SDS011;2295;51.050;14.608;2023-04-29T07:46:25;24.42;;;14.40;;
4565;SDS011;2295;51.050;14.608;2023-04-29T07:48:53;24.55;;;14.70;;
4565;SDS011;2295;51.050;14.608;2023-04-29T07:51:23;27.77;;;15.10;;
4565;SDS011;2295;51.050;14.608;2023-04-29T07:53:54;21.15;;;13.70;;
4565;SDS011;2295;51.050;14.608;2023-04-29T07:56:24;24.65;;;14.40;;
4565;SDS011;2295;51.050;14.608;2023-04-29T07:58:53;21.92;;;14.05;;
4565;SDS011;2295;51.050;14.608;2023-04-29T08:01:21;26.10;;;14.77;;
4565;SDS011;2295;51.050;14.608;2023-04-29T08:03:49;23.33;;;14.43;;
4565;SDS011;2295;51.050;14.608;2023-04-29T08:06:18;28.17;;;15.80;;
4565;SDS011;2295;51.050;14.608;2023-04-29T08:08:47;29.98;;;16.92;;
4565;SDS011;2295;51.050;14.608;2023-04-29T08:11:16;24.77;;;16.60;;
4565;SDS011;2295;51.050;14.608;2023-04-29T08:13:47;26.25;;;16.05;;
4565;SDS011;2295;51.050;14.608;2023-04-29T08:16:18;33.97;;;17.67;;
4565;SDS011;2295;51.050;14.608;2023-04-29T08:18:47;32.20;;;17.63;;
4565;SDS011;2295;51.050;14.608;2023-04-29T08:21:16;26.90;;;16.10;;
4565;SDS011;2295;51.050;14.608;2023-04-29T08:23:45;20.77;;;14.73;;
4565;SDS011;2295;51.050;14.608;2023-04-29T08:26:13;20.90;;;13.60;;
4565;SDS011;2295;51.050;14.608;2023-04-29T08:28:46;20.47;;;14.20;;
4565;SDS011;2295;51.050;14.608;2023-04-29T08:31:15;21.33;;;13.47;;
4565;SDS011;2295;51.050;14.608;2023-04-29T08:33:44;19.05;;;13.63;;
4565;SDS011;2295;51.050;14.608;2023-04-29T08:36:16;20.90;;;14.10;;
4565;SDS011;2295;51.050;14.608;2023-04-29T08:38:44;20.63;;;14.30;;
4565;SDS011;2295;51.050;14.608;2023-04-29T08:41:14;26.08;;;15.68;;
4565;SDS011;2295;51.050;14.608;2023-04-29T08:43:42;24.17;;;16.48;;
4565;SDS011;2295;51.050;14.608;2023-04-29T08:46:12;24.85;;;16.38;;
4565;SDS011;2295;51.050;14.608;2023-04-29T08:48:42;24.60;;;15.57;;
4565;SDS011;2295;51.050;14.608;2023-04-29T08:51:11;22.83;;;14.85;;
4565;SDS011;2295;51.050;14.608;2023-04-29T08:53:40;23.98;;;13.20;;
4565;SDS011;2295;51.050;14.608;2023-04-29T08:56:15;20.55;;;12.15;;
4565;SDS011;2295;51.050;14.608;2023-04-29T08:58:46;17.60;;;13.00;;
4565;SDS011;2295;51.050;14.608;2023-04-29T09:01:21;14.07;;;11.30;;
4565;SDS011;2295;51.050;14.608;2023-04-29T09:03:53;16.88;;;11.93;;
4565;SDS011;2295;51.050;14.608;2023-04-29T09:06:29;15.23;;;11.05;;
4565;SDS011;2295;51.050;14.608;2023-04-29T09:08:58;14.65;;;10.25;;
4565;SDS011;2295;51.050;14.608;2023-04-29T09:11:33;17.83;;;11.93;;
4565;SDS011;2295;51.050;14.608;2023-04-29T09:14:06;18.75;;;13.55;;
4565;SDS011;2295;51.050;14.608;2023-04-29T09:16:36;16.42;;;11.70;;
4565;SDS011;2295;51.050;14.608;2023-04-29T09:19:07;15.50;;;12.18;;
4565;SDS011;2295;51.050;14.608;2023-04-29T09:21:36;16.15;;;11.02;;
4565;SDS011;2295;51.050;14.608;2023-04-29T09:24:05;14.40;;;10.75;;
4565;SDS011;2295;51.050;14.608;2023-04-29T09:26:35;18.52;;;12.60;;
4565;SDS011;2295;51.050;14.608;2023-04-29T09:29:11;16.50;;;11.90;;
4565;SDS011;2295;51.050;14.608;2023-04-29T09:31:43;14.98;;;11.35;;
4565;SDS011;2295;51.050;14.608;2023-04-29T09:34:15;16.90;;;11.63;;
4565;SDS011;2295;51.050;14.608;2023-04-29T09:36:44;16.95;;;11.93;;
4565;SDS011;2295;51.050;14.608;2023-04-29T09:39:14;17.60;;;11.85;;
4565;SDS011;2295;51.050;14.608;2023-04-29T09:41:56;16.23;;;11.82;;
4565;SDS011;2295;51.050;14.608;2023-04-29T09:44:28;11.98;;;9.27;;
4565;SDS011;2295;51.050;14.608;2023-04-29T09:47:01;14.38;;;9.90;;
4565;SDS011;2295;51.050;14.608;2023-04-29T09:49:31;5.77;;;5.23;;
4565;SDS011;2295;51.050;14.608;2023-04-29T09:52:03;7.13;;;4.80;;
4565;SDS011;2295;51.050;14.608;2023-04-29T09:54:36;4.60;;;4.20;;
4565;SDS011;2295;51.050;14.608;2023-04-29T09:57:09;5.40;;;4.33;;
4565;SDS011;2295;51.050;14.608;2023-04-29T09:59:44;5.33;;;4.73;;
4565;SDS011;2295;51.050;14.608;2023-04-29T10:02:15;5.73;;;5.23;;
4565;SDS011;2295;51.050;14.608;2023-04-29T10:04:45;5.03;;;4.50;;
4565;SDS011;2295;51.050;14.608;2023-04-29T10:07:22;4.77;;;4.33;;
4565;SDS011;2295;51.050;14.608;2023-04-29T10:09:54;4.43;;;4.03;;
4565;SDS011;2295;51.050;14.608;2023-04-29T10:12:23;5.10;;;4.60;;
4565;SDS011;2295;51.050;14.608;2023-04-29T10:14:54;5.60;;;5.10;;
4565;SDS011;2295;51.050;14.608;2023-04-29T10:17:35;5.93;;;4.80;;
4565;SDS011;2295;51.050;14.608;2023-04-29T10:20:08;6.00;;;4.90;;
4565;SDS011;2295;51.050;14.608;2023-04-29T10:22:44;6.10;;;5.13;;
4565;SDS011;2295;51.050;14.608;2023-04-29T10:25:14;5.63;;;4.93;;
4565;SDS011;2295;51.050;14.608;2023-04-29T10:27:43;5.20;;;4.70;;
4565;SDS011;2295;51.050;14.608;2023-04-29T10:30:15;7.77;;;5.67;;
4565;SDS011;2295;51.050;14.608;2023-04-29T10:32:47;6.27;;;5.57;;
4565;SDS011;2295;51.050;14.608;2023-04-29T10:35:18;6.87;;;5.10;;
4565;SDS011;2295;51.050;14.608;2023-04-29T10:37:51;9.37;;;6.87;;
4565;SDS011;2295;51.050;14.608;2023-04-29T10:40:21;11.73;;;6.50;;
4565;SDS011;2295;51.050;14.608;2023-04-29T10:42:54;8.73;;;6.10;;
4565;SDS011;2295;51.050;14.608;2023-04-29T10:45:24;7.70;;;5.50;;
4565;SDS011;2295;51.050;14.608;2023-04-29T10:51:05;10.32;;;7.32;;
4565;SDS011;2295;51.050;14.608;2023-04-29T10:53:33;12.30;;;8.30;;
4565;SDS011;2295;51.050;14.608;2023-04-29T10:56:03;6.95;;;6.25;;
4565;SDS011;2295;51.050;14.608;2023-04-29T10:58:40;8.98;;;6.45;;
4565;SDS011;2295;51.050;14.608;2023-04-29T11:01:13;7.72;;;6.15;;
4565;SDS011;2295;51.050;14.608;2023-04-29T11:03:47;7.38;;;6.28;;
4565;SDS011;2295;51.050;14.608;2023-04-29T11:06:24;8.70;;;6.75;;
4565;SDS011;2295;51.050;14.608;2023-04-29T11:09:08;10.80;;;7.40;;
4565;SDS011;2295;51.050;14.608;2023-04-29T11:11:44;13.45;;;7.53;;
4565;SDS011;2295;51.050;14.608;2023-04-29T11:14:24;11.23;;;7.38;;
4565;SDS011;2295;51.050;14.608;2023-04-29T11:16:55;9.97;;;6.17;;
4565;SDS011;2295;51.050;14.608;2023-04-29T11:19:30;20.50;;;7.20;;
4565;SDS011;2295;51.050;14.608;2023-04-29T11:22:03;6.13;;;4.93;;
4565;SDS011;2295;51.050;14.608;2023-04-29T11:24:52;10.70;;;6.00;;
4565;SDS011;2295;51.050;14.608;2023-04-29T11:27:24;6.97;;;5.37;;
4565;SDS011;2295;51.050;14.608;2023-04-29T11:29:56;8.20;;;6.20;;
4565;SDS011;2295;51.050;14.608;2023-04-29T11:32:28;8.87;;;6.73;;
4565;SDS011;2295;51.050;14.608;2023-04-29T11:35:12;10.47;;;7.33;;
4565;SDS011;2295;51.050;14.608;2023-04-29T11:37:42;12.83;;;8.10;;
4565;SDS011;2295;51.050;14.608;2023-04-29T11:40:12;12.07;;;9.00;;
4565;SDS011;2295;51.050;14.608;2023-04-29T11:42:42;14.10;;;9.32;;
4565;SDS011;2295;51.050;14.608;2023-04-29T11:45:12;14.18;;;9.57;;
4565;SDS011;2295;51.050;14.608;2023-04-29T11:47:41;14.63;;;10.30;;
4565;SDS011;2295;51.050;14.608;2023-04-29T11:50:14;18.83;;;12.43;;
4565;SDS011;2295;51.050;14.608;2023-04-29T11:52:49;18.35;;;12.00;;
4565;SDS011;2295;51.050;14.608;2023-04-29T11:55:18;18.98;;;11.57;;
4565;SDS011;2295;51.050;14.608;2023-04-29T11:57:48;34.10;;;10.50;;
4565;SDS011;2295;51.050;14.608;2023-04-29T12:00:19;13.00;;;9.50;;
4565;SDS011;2295;51.050;14.608;2023-04-29T12:02:51;15.90;;;10.98;;
4565;SDS011;2295;51.050;14.608;2023-04-29T12:05:22;14.40;;;10.48;;
4565;SDS011;2295;51.050;14.608;2023-04-29T12:07:53;13.68;;;9.65;;
4565;SDS011;2295;51.050;14.608;2023-04-29T12:10:25;19.20;;;11.18;;
4565;SDS011;2295;51.050;14.608;2023-04-29T12:12:54;13.95;;;9.68;;
4565;SDS011;2295;51.050;14.608;2023-04-29T12:15:22;12.65;;;10.63;;
4565;SDS011;2295;51.050;14.608;2023-04-29T12:17:51;11.90;;;8.95;;
4565;SDS011;2295;51.050;14.608;2023-04-29T12:20:21;11.77;;;8.70;;
4565;SDS011;2295;51.050;14.608;2023-04-29T12:22:50;11.40;;;8.38;;
4565;SDS011;2295;51.050;14.608;2023-04-29T12:25:23;12.35;;;8.50;;
4565;SDS011;2295;51.050;14.608;2023-04-29T12:30:42;10.52;;;8.30;;
4565;SDS011;2295;51.050;14.608;2023-04-29T12:33:14;11.70;;;8.57;;
4565;SDS011;2295;51.050;14.608;2023-04-29T12:35:46;10.30;;;8.13;;
4565;SDS011;2295;51.050;14.608;2023-04-29T12:38:19;12.52;;;9.68;;
4565;SDS011;2295;51.050;14.608;2023-04-29T12:40:48;14.55;;;9.93;;
4565;SDS011;2295;51.050;14.608;2023-04-29T12:43:17;14.93;;;10.00;;
4565;SDS011;2295;51.050;14.608;2023-04-29T12:45:45;12.93;;;10.25;;
4565;SDS011;2295;51.050;14.608;2023-04-29T12:48:18;14.55;;;10.50;;
4565;SDS011;2295;51.050;14.608;2023-04-29T12:50:57;16.17;;;11.02;;
4565;SDS011;2295;51.050;14.608;2023-04-29T12:53:28;14.90;;;10.93;;
4565;SDS011;2295;51.050;14.608;2023-04-29T12:55:57;14.60;;;10.95;;
4565;SDS011;2295;51.050;14.608;2023-04-29T12:58:27;15.77;;;11.32;;
4565;SDS011;2295;51.050;14.608;2023-04-29T13:00:56;15.00;;;10.63;;
4565;SDS011;2295;51.050;14.608;2023-04-29T13:03:25;14.77;;;10.60;;
4565;SDS011;2295;51.050;14.608;2023-04-29T13:05:54;16.80;;;11.45;;
4565;SDS011;2295;51.050;14.608;2023-04-29T13:08:24;15.43;;;10.77;;
4565;SDS011;2295;51.050;14.608;2023-04-29T13:10:54;14.88;;;10.57;;
4565;SDS011;2295;51.050;14.608;2023-04-29T13:13:23;14.48;;;10.10;;
4565;SDS011;2295;51.050;14.608;2023-04-29T13:15:53;11.93;;;9.07;;
4565;SDS011;2295;51.050;14.608;2023-04-29T13:18:21;10.23;;;8.15;;
4565;SDS011;2295;51.050;14.608;2023-04-29T13:20:50;8.05;;;7.00;;
4565;SDS011;2295;51.050;14.608;2023-04-29T13:23:19;8.63;;;6.97;;
4565;SDS011;2295;51.050;14.608;2023-04-29T13:25:50;9.20;;;7.10;;
4565;SDS011;2295;51.050;14.608;2023-04-29T13:28:19;12.30;;;9.07;;
4565;SDS011;2295;51.050;14.608;2023-04-29T13:30:48;13.02;;;8.43;;
4565;SDS011;2295;51.050;14.608;2023-04-29T13:33:17;8.25;;;7.05;;
4565;SDS011;2295;51.050;14.608;2023-04-29T13:35:47;12.48;;;6.90;;
4565;SDS011;2295;51.050;14.608;2023-04-29T13:38:15;7.05;;;5.95;;
4565;SDS011;2295;51.050;14.608;2023-04-29T13:40:44;6.70;;;6.00;;
4565;SDS011;2295;51.050;14.608;2023-04-29T13:43:18;6.15;;;5.55;;
4565;SDS011;2295;51.050;14.608;2023-04-29T13:46:02;6.70;;;5.88;;
4565;SDS011;2295;51.050;14.608;2023-04-29T13:48:33;7.22;;;5.28;;
4565;SDS011;2295;51.050;14.608;2023-04-29T13:51:22;7.00;;;6.18;;
4565;SDS011;2295;51.050;14.608;2023-04-29T13:54:10;7.70;;;6.07;;
4565;SDS011;2295;51.050;14.608;2023-04-29T13:56:42;8.30;;;7.10;;
4565;SDS011;2295;51.050;14.608;2023-04-29T13:59:15;8.05;;;7.05;;
4565;SDS011;2295;51.050;14.608;2023-04-29T14:01:46;7.78;;;6.97;;
4565;SDS011;2295;51.050;14.608;2023-04-29T14:04:19;7.43;;;6.75;;
4565;SDS011;2295;51.050;14.608;2023-04-29T14:06:49;7.90;;;7.10;;
4565;SDS011;2295;51.050;14.608;2023-04-29T14:09:17;10.38;;;8.07;;
4565;SDS011;2295;51.050;14.608;2023-04-29T14:11:47;8.40;;;6.75;;
4565;SDS011;2295;51.050;14.608;2023-04-29T14:14:17;8.35;;;6.43;;
4565;SDS011;2295;51.050;14.608;2023-04-29T14:16:46;7.80;;;7.00;;
4565;SDS011;2295;51.050;14.608;2023-04-29T14:19:14;7.45;;;6.53;;
4565;SDS011;2295;51.050;14.608;2023-04-29T14:21:43;10.98;;;7.60;;
4565;SDS011;2295;51.050;14.608;2023-04-29T14:24:14;9.88;;;7.53;;
4565;SDS011;2295;51.050;14.608;2023-04-29T14:26:42;9.25;;;8.18;;
4565;SDS011;2295;51.050;14.608;2023-04-29T14:29:11;12.48;;;9.30;;
4565;SDS011;2295;51.050;14.608;2023-04-29T14:31:43;13.43;;;9.85;;
4565;SDS011;2295;51.050;14.608;2023-04-29T14:34:12;19.77;;;11.82;;
4565;SDS011;2295;51.050;14.608;2023-04-29T14:36:42;18.65;;;12.85;;
4565;SDS011;2295;51.050;14.608;2023-04-29T14:39:14;24.15;;;12.30;;
4565;SDS011;2295;51.050;14.608;2023-04-29T14:41:53;18.58;;;11.82;;
4565;SDS011;2295;51.050;14.608;2023-04-29T14:44:22;17.85;;;11.52;;
4565;SDS011;2295;51.050;14.608;2023-04-29T14:46:53;19.52;;;12.18;;
4565;SDS011;2295;51.050;14.608;2023-04-29T14:49:21;32.25;;;13.63;;
4565;SDS011;2295;51.050;14.608;2023-04-29T14:51:49;22.95;;;13.77;;
4565;SDS011;2295;51.050;14.608;2023-04-29T14:54:18;25.23;;;14.75;;
4565;SDS011;2295;51.050;14.608;2023-04-29T14:56:47;30.05;;;14.68;;
4565;SDS011;2295;51.050;14.608;2023-04-29T14:59:25;28.02;;;15.10;;
4565;SDS011;2295;51.050;14.608;2023-04-29T15:01:59;23.00;;;12.65;;
4565;SDS011;2295;51.050;14.608;2023-04-29T15:04:30;22.88;;;12.52;;
4565;SDS011;2295;51.050;14.608;2023-04-29T15:06:59;20.55;;;10.27;;